Time;durP1;ratioP1;P1;durP2;ratioP2;P2;SDS_P1;SDS_P2;PMS_P1;PMS_P2;Temp;Humidity;BMP_temperature;BMP_pressure;BME280_temperature;BME280_humidity;BME280_pressure;Samples;Min_cycle;Max_cycle;Signal;HPM_P1;HPM_P2
2023/12/01 00:01:05;;;;;;;14.40;3.92;;;;;;;-4.91;100.00;99835.94;4915587;29;20197;-69
2023/12/01 00:03:39;;;;;;;3.15;2.15;;;;;;;-4.78;100.00;99841.84;4930739;29;20260;-68
2023/12/01 00:06:16;;;;;;;2.35;2.15;;;;;;;-4.72;100.00;99845.78;4928387;29;20229;-68
2023/12/01 00:08:47;;;;;;;1.60;1.50;;;;;;;-4.54;100.00;99841.56;4916164;29;20211;-69
2023/12/01 00:11:26;;;;;;;19.15;4.93;;;;;;;-4.56;100.00;99851.44;4918226;29;20226;-68
2023/12/01 00:14:01;;;;;;;9.10;4.30;;;;;;;-4.58;100.00;99853.34;4915299;29;20213;-70
2023/12/01 00:16:34;;;;;;;2.88;2.65;;;;;;;-4.60;100.00;99850.84;4934418;29;20195;-68
2023/12/01 00:19:06;;;;;;;7.32;4.60;;;;;;;-4.57;100.00;99852.41;4933252;29;20197;-70
2023/12/01 00:21:40;;;;;;;1.63;1.52;;;;;;;-4.48;100.00;99848.97;4930730;29;20460;-68
2023/12/01 00:24:15;;;;;;;5.68;4.22;;;;;;;-4.56;100.00;99851.44;4913999;29;20273;-69
2023/12/01 00:26:50;;;;;;;14.75;5.63;;;;;;;-4.54;100.00;99854.75;4921334;29;20221;-69
2023/12/01 00:29:24;;;;;;;3.38;3.15;;;;;;;-4.54;100.00;99857.41;4915886;29;20212;-69
2023/12/01 00:31:58;;;;;;;5.90;4.03;;;;;;;-4.47;100.00;99855.94;4916636;29;20611;-66
2023/12/01 00:34:30;;;;;;;5.85;1.98;;;;;;;-4.42;100.00;99851.91;4921554;29;20225;-69
2023/12/01 00:37:05;;;;;;;6.57;3.55;;;;;;;-4.36;100.00;99850.56;4921233;29;20646;-69
2023/12/01 00:39:38;;;;;;;8.80;3.00;;;;;;;-4.31;100.00;99847.53;4912322;29;20215;-68
2023/12/01 00:42:13;;;;;;;6.30;5.18;;;;;;;-4.22;100.00;99849.34;4917430;29;20201;-68
2023/12/01 00:44:45;;;;;;;3.47;3.17;;;;;;;-4.19;100.00;99842.00;4940546;29;20203;-69
2023/12/01 00:47:20;;;;;;;3.92;3.25;;;;;;;-4.29;100.00;99846.41;4921960;29;20236;-69
2023/12/01 00:49:55;;;;;;;3.85;1.20;;;;;;;-4.39;100.00;99845.53;4918354;29;20192;-69
2023/12/01 00:52:31;;;;;;;4.50;3.97;;;;;;;-4.30;100.00;99852.66;4915096;29;20236;-69
2023/12/01 00:55:03;;;;;;;6.68;5.15;;;;;;;-4.26;100.00;99853.25;4919066;29;20255;-69
2023/12/01 00:57:40;;;;;;;1.60;1.50;;;;;;;-4.23;100.00;99859.09;4917854;29;20209;-70
2023/12/01 01:00:16;;;;;;;4.40;2.97;;;;;;;-4.31;100.00;99856.28;4924218;29;20223;-69
2023/12/01 01:02:55;;;;;;;2.00;1.83;;;;;;;-4.48;100.00;99864.81;4910482;29;20287;-69
2023/12/01 01:05:30;;;;;;;18.80;4.88;;;;;;;-4.53;100.00;99869.66;4903732;29;20220;-69
2023/12/01 01:08:06;;;;;;;4.70;2.88;;;;;;;-4.55;100.00;99874.25;4899906;29;20194;-70
2023/12/01 01:10:38;;;;;;;16.27;4.32;;;;;;;-4.61;100.00;99874.75;4901244;29;20225;-68
2023/12/01 01:13:11;;;;;;;6.25;5.75;;;;;;;-4.45;100.00;99877.72;4911925;29;20209;-68
2023/12/01 01:15:44;;;;;;;2.53;2.33;;;;;;;-4.63;100.00;99868.75;4913140;29;20317;-69
2023/12/01 01:18:18;;;;;;;7.63;6.97;;;;;;;-4.70;100.00;99881.66;4908192;29;20192;-69
2023/12/01 01:20:53;;;;;;;3.90;3.63;;;;;;;-4.61;100.00;99880.88;4899149;29;20205;-68
2023/12/01 01:23:29;;;;;;;1.45;1.35;;;;;;;-4.63;100.00;99892.50;4900634;29;20584;-69
2023/12/01 01:26:07;;;;;;;8.90;7.38;;;;;;;-4.72;100.00;99882.72;4905590;29;20196;-69
2023/12/01 01:28:41;;;;;;;11.70;4.72;;;;;;;-4.77;100.00;99884.94;4902831;29;20289;-69
2023/12/01 01:31:14;;;;;;;5.90;4.55;;;;;;;-4.96;100.00;99886.47;4901744;29;20267;-69
2023/12/01 01:33:46;;;;;;;19.40;6.93;;;;;;;-5.07;100.00;99883.03;4902652;29;20260;-69
2023/12/01 01:36:19;;;;;;;8.13;2.38;;;;;;;-5.27;100.00;99887.31;4906938;29;20210;-69
2023/12/01 01:38:56;;;;;;;6.55;2.95;;;;;;;-5.36;100.00;99883.66;4904687;29;20200;-68
2023/12/01 01:41:30;;;;;;;3.67;3.47;;;;;;;-5.23;100.00;99878.22;4913889;29;20197;-67
2023/12/01 01:44:03;;;;;;;3.85;1.95;;;;;;;-5.32;100.00;99877.16;4908731;29;20309;-69
2023/12/01 01:46:37;;;;;;;4.03;3.63;;;;;;;-5.41;100.00;99879.72;4896896;29;20238;-67
2023/12/01 01:49:17;;;;;;;3.38;1.15;;;;;;;-5.46;100.00;99882.72;4911166;29;20312;-70
2023/12/01 01:51:51;;;;;;;1.30;1.20;;;;;;;-5.36;100.00;99877.53;4907814;29;20199;-68
2023/12/01 01:54:32;;;;;;;5.15;4.65;;;;;;;-5.42;100.00;99883.34;4905697;29;20719;-69
2023/12/01 01:57:05;;;;;;;4.93;2.60;;;;;;;-5.45;100.00;99891.47;4901369;29;20276;-69
2023/12/01 01:59:40;;;;;;;0.95;0.85;;;;;;;-5.62;100.00;99892.03;4902996;29;20593;-70
2023/12/01 02:02:15;;;;;;;4.50;4.05;;;;;;;-5.68;100.00;99889.88;4907847;29;20632;-68
2023/12/01 02:04:53;;;;;;;3.88;1.77;;;;;;;-5.74;100.00;99884.13;4929744;29;20244;-69
2023/12/01 02:07:28;;;;;;;1.42;1.33;;;;;;;-5.92;100.00;99884.81;4916943;29;20227;-69
2023/12/01 02:10:07;;;;;;;2.65;2.08;;;;;;;-6.00;100.00;99885.38;4912559;29;20195;-70
2023/12/01 02:12:47;;;;;;;10.30;5.65;;;;;;;-6.05;100.00;99890.19;4939693;29;20546;-69
2023/12/01 02:15:18;;;;;;;4.15;2.45;;;;;;;-6.02;100.00;99889.13;4914471;29;20228;-69
2023/12/01 02:17:52;;;;;;;2.40;1.95;;;;;;;-6.10;100.00;99879.22;4929422;29;20577;-68
2023/12/01 02:20:27;;;;;;;7.32;1.85;;;;;;;-6.13;100.00;99882.06;4911809;29;20222;-68
2023/12/01 02:23:06;;;;;;;2.60;2.28;;;;;;;-6.20;100.00;99883.53;4924900;29;20223;-69
2023/12/01 02:25:42;;;;;;;6.10;4.13;;;;;;;-6.20;100.00;99880.88;4930959;29;20310;-70
2023/12/01 02:28:15;;;;;;;1.83;1.35;;;;;;;-6.23;100.00;99876.69;4923217;29;20288;-68
2023/12/01 02:30:54;;;;;;;9.38;1.73;;;;;;;-6.28;100.00;99881.47;4919890;29;20316;-68
2023/12/01 02:33:35;;;;;;;10.18;3.03;;;;;;;-6.36;100.00;99880.41;4949028;29;20232;-69
2023/12/01 02:36:13;;;;;;;3.30;1.70;;;;;;;-6.39;100.00;99875.38;4924635;29;20260;-70
2023/12/01 02:38:48;;;;;;;0.90;0.80;;;;;;;-6.44;100.00;99883.66;4935176;29;20279;-68
2023/12/01 02:41:22;;;;;;;2.85;2.65;;;;;;;-6.48;100.00;99881.34;4934286;29;20546;-70
2023/12/01 02:43:57;;;;;;;1.88;1.50;;;;;;;-6.43;100.00;99881.81;4930565;29;20211;-67
2023/12/01 02:46:31;;;;;;;1.27;1.17;;;;;;;-6.50;100.00;99878.84;4935156;29;20189;-68
2023/12/01 02:49:04;;;;;;;2.95;2.65;;;;;;;-6.54;100.00;99879.22;4922987;29;20228;-70
2023/12/01 02:51:42;;;;;;;4.38;2.72;;;;;;;-6.52;100.00;99875.47;4955455;29;20593;-69
2023/12/01 02:54:18;;;;;;;2.08;1.98;;;;;;;-6.54;100.00;99880.03;4928648;29;20251;-70
2023/12/01 02:56:52;;;;;;;0.90;0.75;;;;;;;-6.52;100.00;99879.91;4930552;29;20228;-70
2023/12/01 02:59:24;;;;;;;5.60;2.03;;;;;;;-6.69;100.00;99878.59;4930206;29;20211;-69
2023/12/01 03:02:00;;;;;;;1.05;0.95;;;;;;;-6.68;100.00;99881.09;4930652;29;20197;-69
2023/12/01 03:04:35;;;;;;;4.35;2.78;;;;;;;-6.65;100.00;99880.88;4915167;29;20296;-69
2023/12/01 03:07:08;;;;;;;1.70;1.60;;;;;;;-6.64;100.00;99876.44;4919526;29;20211;-70
2023/12/01 03:10:05;;;;;;;0.80;0.70;;;;;;;-6.63;100.00;99886.84;4923877;29;20196;-68
2023/12/01 03:12:47;;;;;;;1.15;1.02;;;;;;;-6.61;100.00;99887.56;4920898;29;20323;-69
2023/12/01 03:15:21;;;;;;;2.75;2.17;;;;;;;-6.73;100.00;99896.38;4910304;29;20224;-69
2023/12/01 03:17:55;;;;;;;2.05;1.95;;;;;;;-6.67;100.00;99900.34;4943229;29;20624;-68
2023/12/01 03:20:34;;;;;;;1.98;1.83;;;;;;;-6.69;100.00;99900.47;4925292;29;20197;-68
2023/12/01 03:23:07;;;;;;;3.65;2.67;;;;;;;-6.41;100.00;99899.19;4917980;29;20185;-68
2023/12/01 03:25:41;;;;;;;1.23;1.13;;;;;;;-6.28;100.00;99893.78;4945639;29;20221;-68
2023/12/01 03:28:19;;;;;;;0.80;0.60;;;;;;;-6.42;100.00;99894.03;4921346;29;20197;-69
2023/12/01 03:30:57;;;;;;;1.73;1.63;;;;;;;-6.65;100.00;99883.50;4925087;29;20295;-67
2023/12/01 03:33:30;;;;;;;1.85;1.60;;;;;;;-6.64;100.00;99889.59;4925782;29;20495;-69
2023/12/01 03:36:10;;;;;;;1.60;1.25;;;;;;;-6.73;100.00;99893.75;4935911;29;20191;-68
2023/12/01 03:38:44;;;;;;;4.50;1.05;;;;;;;-6.74;100.00;99902.63;4929312;29;20200;-69
2023/12/01 03:41:20;;;;;;;1.60;1.50;;;;;;;-6.82;100.00;99907.59;4924300;29;20213;-69
2023/12/01 03:43:55;;;;;;;1.30;0.90;;;;;;;-6.68;100.00;99904.75;4931083;29;20235;-69
2023/12/01 03:46:32;;;;;;;2.72;2.45;;;;;;;-6.68;100.00;99911.84;4913424;29;20205;-70
2023/12/01 03:49:08;;;;;;;1.20;1.10;;;;;;;-6.48;100.00;99913.75;4919784;29;20229;-68
2023/12/01 03:51:43;;;;;;;4.88;2.85;;;;;;;-6.58;100.00;99909.34;4942420;29;20220;-68
2023/12/01 03:54:17;;;;;;;1.25;1.15;;;;;;;-6.58;100.00;99912.78;4941936;29;20762;-69
2023/12/01 03:56:51;;;;;;;4.03;3.20;;;;;;;-6.37;100.00;99915.56;4918710;29;20201;-70
2023/12/01 03:59:31;;;;;;;1.13;0.80;;;;;;;-6.45;100.00;99923.22;4912320;29;20488;-69
2023/12/01 04:02:06;;;;;;;0.90;0.80;;;;;;;-6.53;100.00;99925.63;4927250;29;20232;-70
2023/12/01 04:04:42;;;;;;;3.67;3.45;;;;;;;-6.66;100.00;99926.53;4922816;29;20283;-68
2023/12/01 04:07:22;;;;;;;2.25;2.05;;;;;;;-6.74;100.00;99943.88;4919812;29;20544;-68
2023/12/01 04:09:56;;;;;;;0.80;0.70;;;;;;;-6.87;100.00;99938.69;4917466;29;20687;-69
2023/12/01 04:12:33;;;;;;;2.00;1.90;;;;;;;-6.89;100.00;99932.72;4918017;29;20215;-69
2023/12/01 04:15:14;;;;;;;1.90;0.95;;;;;;;-7.01;100.00;99933.63;4925362;29;20230;-69
2023/12/01 04:17:54;;;;;;;0.80;0.60;;;;;;;-7.17;100.00;99931.31;4920737;29;20727;-69
2023/12/01 04:20:35;;;;;;;0.95;0.90;;;;;;;-7.10;100.00;99936.94;4925820;29;20201;-70
2023/12/01 04:23:14;;;;;;;0.80;0.65;;;;;;;-7.00;100.00;99934.44;4908466;29;20603;-69
2023/12/01 04:25:54;;;;;;;1.38;1.27;;;;;;;-6.95;100.00;99930.53;4933881;29;20209;-69
2023/12/01 04:28:31;;;;;;;11.65;1.70;;;;;;;-6.97;100.00;99931.63;4938875;29;20201;-69
2023/12/01 04:31:11;;;;;;;0.90;0.70;;;;;;;-7.01;100.00;99930.97;4939600;29;20206;-70
2023/12/01 04:33:48;;;;;;;6.32;1.15;;;;;;;-6.82;100.00;99931.28;4934975;29;20216;-69
2023/12/01 04:36:24;;;;;;;1.25;1.15;;;;;;;-6.79;100.00;99925.81;4925771;29;20249;-69
2023/12/01 04:39:04;;;;;;;2.63;2.42;;;;;;;-6.75;100.00;99918.50;4924787;29;20197;-69
2023/12/01 04:41:38;;;;;;;12.82;2.35;;;;;;;-6.74;100.00;99923.66;4934704;29;20197;-69
2023/12/01 04:44:12;;;;;;;3.60;3.25;;;;;;;-6.77;100.00;99923.88;4927646;29;20277;-70
2023/12/01 04:46:50;;;;;;;2.45;1.08;;;;;;;-6.81;100.00;99922.44;4943292;29;20244;-67
2023/12/01 04:49:26;;;;;;;0.80;0.50;;;;;;;-6.80;100.00;99923.28;4917385;29;20214;-69
2023/12/01 04:52:00;;;;;;;0.80;0.60;;;;;;;-6.84;100.00;99927.09;4916698;29;20201;-69
2023/12/01 04:54:35;;;;;;;1.42;1.33;;;;;;;-6.85;100.00;99923.63;4916513;29;20224;-67
2023/12/01 04:57:13;;;;;;;2.10;1.77;;;;;;;-7.03;100.00;99925.84;4924668;29;20200;-69
2023/12/01 04:59:56;;;;;;;1.08;0.98;;;;;;;-7.11;100.00;99930.81;4924413;29;20201;-68
2023/12/01 05:02:34;;;;;;;1.00;0.90;;;;;;;-7.26;100.00;99937.22;4926570;29;20196;-69
2023/12/01 05:05:11;;;;;;;22.92;3.03;;;;;;;-7.24;100.00;99934.47;4922182;29;20221;-69
2023/12/01 05:07:49;;;;;;;0.80;0.75;;;;;;;-7.20;100.00;99935.94;4951576;29;20223;-69
2023/12/01 05:10:23;;;;;;;0.80;0.60;;;;;;;-7.21;100.00;99929.81;4924372;29;20615;-70
2023/12/01 05:12:58;;;;;;;0.82;0.65;;;;;;;-7.25;100.00;99933.63;4943946;29;20675;-70
2023/12/01 05:15:35;;;;;;;0.90;0.80;;;;;;;-7.13;100.00;99939.78;4924099;29;20222;-67
2023/12/01 05:18:13;;;;;;;10.93;1.33;;;;;;;-7.27;100.00;99940.81;4938862;29;20200;-69
2023/12/01 05:20:48;;;;;;;1.77;1.42;;;;;;;-7.23;100.00;99946.69;4920686;29;20200;-68
2023/12/01 05:23:22;;;;;;;1.92;1.60;;;;;;;-7.23;100.00;99942.25;4919939;29;20199;-69
2023/12/01 05:25:56;;;;;;;4.15;3.78;;;;;;;-7.36;100.00;99938.03;4919889;29;20189;-68
2023/12/01 05:28:32;;;;;;;1.00;0.90;;;;;;;-7.38;100.00;99935.50;4921907;29;20693;-68
2023/12/01 05:31:07;;;;;;;1.08;0.98;;;;;;;-7.28;100.00;99938.28;4912126;29;20202;-69
2023/12/01 05:33:46;;;;;;;1.23;1.13;;;;;;;-7.14;100.00;99933.69;4923094;29;20212;-68
2023/12/01 05:36:32;;;;;;;0.80;0.80;;;;;;;-7.32;100.00;99937.69;4926145;29;20196;-68
2023/12/01 05:39:12;;;;;;;1.05;0.95;;;;;;;-7.29;100.00;99944.50;4916873;29;20196;-69
2023/12/01 05:41:49;;;;;;;0.80;0.50;;;;;;;-7.48;100.00;99927.44;4931870;29;20668;-70
2023/12/01 05:44:25;;;;;;;0.80;0.60;;;;;;;-7.54;100.00;99942.81;4918252;29;20221;-69
2023/12/01 05:46:59;;;;;;;1.42;1.27;;;;;;;-7.57;100.00;99933.38;4914052;29;20197;-70
2023/12/01 05:49:38;;;;;;;1.27;1.08;;;;;;;-7.51;100.00;99942.59;4913217;29;20197;-69
2023/12/01 05:52:14;;;;;;;1.38;0.93;;;;;;;-7.34;100.00;99944.84;4926772;29;20227;-69
2023/12/01 05:54:52;;;;;;;1.10;1.00;;;;;;;-7.34;100.00;99944.84;4924917;29;20235;-68
2023/12/01 05:57:31;;;;;;;2.70;2.50;;;;;;;-7.44;100.00;99953.50;4921185;29;20197;-69
2023/12/01 06:00:12;;;;;;;2.50;1.40;;;;;;;-7.31;100.00;99949.03;4925531;29;20187;-70
2023/12/01 06:02:51;;;;;;;0.80;0.50;;;;;;;-7.39;100.00;99951.38;4930085;29;20246;-68
2023/12/01 06:05:27;;;;;;;1.00;0.90;;;;;;;-7.27;100.00;99961.00;4922252;29;20583;-69
2023/12/01 06:08:01;;;;;;;0.80;0.68;;;;;;;-7.28;100.00;99964.56;4924223;29;20200;-69
2023/12/01 06:10:36;;;;;;;0.80;0.60;;;;;;;-7.28;100.00;99962.78;4942017;29;20256;-69
2023/12/01 06:13:11;;;;;;;1.75;1.65;;;;;;;-7.23;100.00;99970.34;4935171;29;20212;-69
2023/12/01 06:15:46;;;;;;;5.13;2.00;;;;;;;-7.24;100.00;99968.66;4934084;29;20230;-69
2023/12/01 06:18:20;;;;;;;1.15;1.05;;;;;;;-7.30;100.00;99971.72;4926152;29;20245;-69
2023/12/01 06:20:58;;;;;;;3.05;2.67;;;;;;;-6.98;100.00;99972.00;4925975;29;20207;-68
2023/12/01 06:23:35;;;;;;;1.92;1.77;;;;;;;-7.23;100.00;99975.59;4926689;29;20676;-69
2023/12/01 06:26:11;;;;;;;1.10;1.00;;;;;;;-7.32;100.00;99976.28;4932873;29;20195;-68
2023/12/01 06:28:47;;;;;;;0.80;0.60;;;;;;;-7.42;100.00;99983.13;4936925;29;20267;-69
2023/12/01 06:31:23;;;;;;;1.10;1.00;;;;;;;-7.30;100.00;99976.97;4924220;29;20269;-69
2023/12/01 06:33:59;;;;;;;1.23;1.13;;;;;;;-7.49;100.00;99983.56;4933503;29;20220;-67
2023/12/01 06:36:40;;;;;;;0.80;0.60;;;;;;;-7.58;100.00;99989.50;4924686;29;20634;-69
2023/12/01 06:39:17;;;;;;;2.75;1.95;;;;;;;-7.53;100.00;99992.63;4914690;29;20749;-69
2023/12/01 06:41:53;;;;;;;0.80;0.63;;;;;;;-7.37;100.00;99989.75;4939557;29;20205;-69
2023/12/01 06:44:34;;;;;;;0.80;0.50;;;;;;;-7.49;100.00;99993.25;4912131;29;20726;-68
2023/12/01 06:47:13;;;;;;;0.80;0.57;;;;;;;-7.48;100.00;99992.28;4925463;29;20201;-70
2023/12/01 06:49:55;;;;;;;1.60;1.23;;;;;;;-7.08;100.00;99995.50;4928806;29;20207;-70
2023/12/01 06:52:52;;;;;;;9.98;2.88;;;;;;;-7.20;100.00;99991.13;4926345;29;20220;-71
2023/12/01 06:55:44;;;;;;;1.17;1.08;;;;;;;-7.37;100.00;99996.78;4923566;29;20315;-71
2023/12/01 06:58:21;;;;;;;1.13;1.02;;;;;;;-7.26;100.00;100013.44;4930047;29;20203;-69
2023/12/01 07:00:57;;;;;;;3.08;2.90;;;;;;;-7.31;100.00;100012.13;4941858;29;20535;-69
2023/12/01 07:03:32;;;;;;;1.42;1.33;;;;;;;-7.35;100.00;100014.13;4923310;29;20209;-69
2023/12/01 07:06:08;;;;;;;1.05;0.95;;;;;;;-7.37;100.00;100013.41;4930057;29;20259;-70
2023/12/01 07:08:52;;;;;;;0.80;0.60;;;;;;;-7.31;100.00;100023.44;4922322;29;20212;-69
2023/12/01 07:11:37;;;;;;;0.80;0.50;;;;;;;-5.72;100.00;100023.69;4912195;29;20287;-70
2023/12/01 07:14:39;;;;;;;1.02;0.93;;;;;;;-6.50;100.00;100028.88;4896080;29;20609;-69
2023/12/01 07:17:17;;;;;;;0.93;0.80;;;;;;;-6.28;100.00;100035.97;4910364;29;20578;-69
2023/12/01 07:19:52;;;;;;;1.58;1.45;;;;;;;-4.91;100.00;100033.84;4918380;29;20205;-68
2023/12/01 07:22:31;;;;;;;1.50;1.40;;;;;;;-4.36;100.00;100032.78;4920958;29;20212;-69
2023/12/01 07:25:11;;;;;;;4.20;2.85;;;;;;;-4.18;100.00;100038.31;4919451;29;20213;-68
2023/12/01 07:27:49;;;;;;;1.73;1.63;;;;;;;-4.44;100.00;100046.63;4915373;29;20205;-69
2023/12/01 07:30:34;;;;;;;3.53;3.22;;;;;;;-5.57;100.00;100051.47;4924001;29;20199;-69
2023/12/01 07:33:14;;;;;;;1.27;1.00;;;;;;;-6.36;100.00;100054.16;4912670;29;20268;-69
2023/12/01 07:35:57;;;;;;;0.80;0.60;;;;;;;-6.92;100.00;100058.34;4900032;29;20727;-68
2023/12/01 07:38:31;;;;;;;0.80;0.50;;;;;;;-7.17;100.00;100056.66;4921913;29;20192;-68
2023/12/01 07:41:16;;;;;;;1.45;1.35;;;;;;;-7.28;100.00;100065.31;4903494;29;20265;-68
2023/12/01 07:43:55;;;;;;;0.80;0.70;;;;;;;-7.36;100.00;100069.44;4919103;29;20217;-69
2023/12/01 07:46:36;;;;;;;1.13;1.02;;;;;;;-7.52;100.00;100073.13;4920020;29;20570;-69
2023/12/01 07:49:39;;;;;;;0.80;0.70;;;;;;;-7.52;100.00;100078.41;4926723;29;20193;-68
2023/12/01 07:52:19;;;;;;;0.80;0.60;;;;;;;-7.56;100.00;100068.22;4901195;29;20193;-68
2023/12/01 07:55:01;;;;;;;0.80;0.57;;;;;;;-7.52;100.00;100075.78;4910799;29;20220;-68
2023/12/01 07:57:55;;;;;;;2.17;2.05;;;;;;;-7.44;100.00;100079.63;4944548;29;20207;-68
2023/12/01 08:00:31;;;;;;;0.80;0.60;;;;;;;-7.28;100.00;100083.72;4934941;29;20206;-69
2023/12/01 08:03:08;;;;;;;0.80;0.60;;;;;;;-7.18;100.00;100083.88;4915631;29;20212;-68
2023/12/01 08:05:55;;;;;;;2.95;2.38;;;;;;;-7.18;100.00;100089.16;4900885;29;20214;-68
2023/12/01 08:08:33;;;;;;;0.80;0.57;;;;;;;-7.07;100.00;100099.75;4895903;29;20536;-68
2023/12/01 08:11:16;;;;;;;0.93;0.82;;;;;;;-6.98;100.00;100093.81;4894702;29;20257;-69
2023/12/01 08:14:03;;;;;;;1.17;1.08;;;;;;;-6.99;100.00;100093.94;4918815;29;20304;-69
2023/12/01 08:16:46;;;;;;;0.95;0.85;;;;;;;-6.97;100.00;100092.84;4898464;29;20220;-68
2023/12/01 08:19:28;;;;;;;0.80;0.50;;;;;;;-6.80;100.00;100097.75;4916884;29;20297;-68
2023/12/01 08:22:19;;;;;;;1.88;1.77;;;;;;;-6.68;100.00;100096.03;4886871;29;20233;-69
2023/12/01 08:24:56;;;;;;;1.58;1.48;;;;;;;-6.48;100.00;100107.69;4902865;29;20315;-69
2023/12/01 08:27:30;;;;;;;1.90;1.42;;;;;;;-6.49;100.00;100111.28;4921584;29;20197;-67
2023/12/01 08:30:15;;;;;;;2.90;2.70;;;;;;;-6.44;100.00;100119.69;4902001;29;20197;-68
2023/12/01 08:33:00;;;;;;;1.67;1.58;;;;;;;-6.46;100.00;100121.59;4906195;29;20236;-68
2023/12/01 08:35:43;;;;;;;1.58;1.48;;;;;;;-6.50;100.00;100120.16;4898810;29;20269;-69
2023/12/01 08:38:20;;;;;;;2.20;1.65;;;;;;;-6.42;100.00;100117.78;4903440;29;20192;-69
2023/12/01 08:40:54;;;;;;;0.90;0.82;;;;;;;-6.49;100.00;100121.81;4897796;29;20200;-68
2023/12/01 08:43:40;;;;;;;1.17;1.08;;;;;;;-6.46;100.00;100126.84;4908398;29;20201;-68
2023/12/01 08:46:21;;;;;;;1.63;1.35;;;;;;;-6.53;100.00;100121.19;4894642;29;20894;-70
2023/12/01 08:48:59;;;;;;;0.80;0.80;;;;;;;-6.37;100.00;100118.28;4901550;29;20202;-69
2023/12/01 08:51:42;;;;;;;1.67;1.52;;;;;;;-6.52;100.00;100125.50;4905586;29;20197;-68
2023/12/01 08:54:21;;;;;;;3.70;1.98;;;;;;;-6.50;100.00;100128.88;4902988;29;20221;-69
2023/12/01 08:57:07;;;;;;;3.38;3.17;;;;;;;-6.35;100.00;100137.44;4915814;29;20212;-69
2023/12/01 08:59:50;;;;;;;1.40;1.30;;;;;;;-6.19;100.00;100130.06;4913160;29;20259;-68
2023/12/01 09:02:31;;;;;;;1.27;1.17;;;;;;;-6.05;100.00;100127.22;4894263;29;20218;-69
2023/12/01 09:05:18;;;;;;;2.90;1.52;;;;;;;-5.84;100.00;100133.50;4927545;29;20235;-68
2023/12/01 09:07:57;;;;;;;1.70;1.08;;;;;;;-5.80;100.00;100137.56;4916432;29;20213;-69
2023/12/01 09:10:38;;;;;;;2.47;1.50;;;;;;;-5.65;100.00;100146.09;4920775;29;20203;-68
2023/12/01 09:13:14;;;;;;;8.73;1.40;;;;;;;-5.61;100.00;100146.69;4914479;29;20282;-67
2023/12/01 09:15:47;;;;;;;2.35;2.15;;;;;;;-5.75;100.00;100151.25;4923351;29;20220;-68
2023/12/01 09:18:30;;;;;;;6.05;3.28;;;;;;;-5.62;100.00;100145.03;4913439;29;20201;-68
2023/12/01 09:21:08;;;;;;;3.47;2.67;;;;;;;-5.21;100.00;100140.03;4905999;29;20211;-68
2023/12/01 09:23:47;;;;;;;1.58;0.80;;;;;;;-5.21;100.00;100145.31;4919950;29;20197;-69
2023/12/01 09:26:28;;;;;;;0.90;0.80;;;;;;;-5.05;100.00;100148.41;4921445;29;20559;-69
2023/12/01 09:29:05;;;;;;;17.40;2.53;;;;;;;-4.93;100.00;100150.06;4920691;29;20257;-68
2023/12/01 09:31:53;;;;;;;2.28;2.05;;;;;;;-4.77;100.00;100157.63;4937240;29;20287;-68
2023/12/01 09:34:37;;;;;;;1.52;1.25;;;;;;;-4.82;100.00;100152.69;4935310;29;20224;-68
2023/12/01 09:37:23;;;;;;;2.78;2.10;;;;;;;-4.64;100.00;100139.81;4927606;29;20220;-67
2023/12/01 09:40:06;;;;;;;1.60;1.50;;;;;;;-4.47;100.00;100146.38;4911400;29;20192;-68
2023/12/01 09:42:46;;;;;;;2.63;2.42;;;;;;;-4.41;100.00;100146.75;4918861;29;20206;-68
2023/12/01 09:45:26;;;;;;;5.47;2.08;;;;;;;-4.24;100.00;100142.69;4922213;29;20314;-69
2023/12/01 09:48:16;;;;;;;1.13;1.02;;;;;;;-4.04;99.56;100144.53;4921456;29;20200;-69
2023/12/01 09:51:03;;;;;;;3.65;3.35;;;;;;;-4.05;99.17;100137.56;4903625;29;20208;-69
2023/12/01 09:53:50;;;;;;;4.03;2.25;;;;;;;-3.84;98.40;100144.69;4925121;29;20213;-68
2023/12/01 09:56:36;;;;;;;4.55;2.30;;;;;;;-3.88;98.69;100149.38;4919487;29;20723;-69
2023/12/01 09:59:15;;;;;;;4.50;3.25;;;;;;;-3.76;98.58;100143.06;4915186;29;20254;-69
2023/12/01 10:01:57;;;;;;;2.33;2.13;;;;;;;-3.61;98.23;100151.50;4917655;29;20627;-68
2023/12/01 10:04:37;;;;;;;2.67;2.47;;;;;;;-3.66;96.87;100148.41;4928630;29;20303;-68
2023/12/01 10:07:15;;;;;;;13.50;3.35;;;;;;;-3.74;98.04;100151.72;4882479;29;20197;-69
2023/12/01 10:09:54;;;;;;;1.65;1.15;;;;;;;-3.39;97.75;100146.09;4896352;29;20198;-69
2023/12/01 10:12:32;;;;;;;2.90;2.70;;;;;;;-3.44;95.98;100143.00;4911015;29;20292;-68
2023/12/01 10:15:10;;;;;;;9.23;2.63;;;;;;;-3.34;95.42;100143.84;4902612;29;20227;-67
2023/12/01 10:17:48;;;;;;;2.38;1.63;;;;;;;-3.34;97.50;100135.91;4897471;29;20213;-68
2023/12/01 10:20:24;;;;;;;6.22;5.55;;;;;;;-3.27;96.00;100133.59;4900699;29;20201;-67
2023/12/01 10:23:19;;;;;;;5.18;4.88;;;;;;;-3.06;95.05;100126.44;4906630;29;20193;-67
2023/12/01 10:25:56;;;;;;;3.90;2.85;;;;;;;-2.94;93.97;100132.44;4905037;29;20232;-68
2023/12/01 10:28:41;;;;;;;2.60;2.25;;;;;;;-2.96;93.44;100131.78;4917764;29;20189;-68
2023/12/01 10:31:19;;;;;;;2.60;2.40;;;;;;;-2.96;94.43;100134.41;4906460;29;20224;-69
2023/12/01 10:33:54;;;;;;;2.10;1.90;;;;;;;-2.85;94.16;100135.13;4892027;29;21270;-68
2023/12/01 10:36:36;;;;;;;10.50;2.78;;;;;;;-2.60;94.28;100139.09;4897157;29;20564;-67
2023/12/01 10:39:16;;;;;;;2.67;2.15;;;;;;;-2.44;91.90;100127.97;4895123;29;20288;-68
2023/12/01 10:41:59;;;;;;;7.43;3.50;;;;;;;-2.42;91.31;100118.91;4895128;29;20258;-68
2023/12/01 10:44:42;;;;;;;6.13;4.10;;;;;;;-2.32;90.51;100116.25;4920328;29;20222;-68
2023/12/01 10:47:22;;;;;;;6.22;5.43;;;;;;;-2.28;91.56;100123.81;4895168;29;20195;-68
2023/12/01 10:50:05;;;;;;;14.00;5.78;;;;;;;-2.37;92.05;100124.63;4897140;29;20212;-68
2023/12/01 10:52:51;;;;;;;4.40;3.47;;;;;;;-2.29;92.68;100110.69;4911562;29;20268;-69
2023/12/01 10:55:29;;;;;;;5.32;3.00;;;;;;;-2.09;92.49;100116.84;4906017;29;20730;-68
2023/12/01 10:58:22;;;;;;;5.90;4.75;;;;;;;-1.75;92.17;100110.09;4918956;29;20209;-68
2023/12/01 11:00:59;;;;;;;2.70;2.50;;;;;;;-1.80;91.99;100117.66;4902642;29;20204;-69
2023/12/01 11:03:35;;;;;;;8.25;4.00;;;;;;;-1.74;92.03;100122.34;4901694;29;20208;-67
2023/12/01 11:06:18;;;;;;;10.50;4.95;;;;;;;-1.61;90.49;100122.91;4910128;29;20197;-69
2023/12/01 11:09:11;;;;;;;6.95;3.30;;;;;;;-1.62;90.64;100129.19;4907839;29;20291;-68
2023/12/01 11:14:51;;;;;;;13.63;3.92;;;;;;;-1.61;91.56;100128.22;4896123;29;20355;-69
2023/12/01 11:17:33;;;;;;;7.90;3.60;;;;;;;-1.83;91.19;100124.06;4903464;29;20581;-68
2023/12/01 11:20:36;;;;;;;7.35;3.70;;;;;;;-2.04;91.81;100125.22;4906248;29;20618;-69
2023/12/01 11:23:35;;;;;;;4.20;2.88;;;;;;;-1.98;92.69;100135.22;4905096;29;20237;-67
2023/12/01 11:26:17;;;;;;;5.68;2.58;;;;;;;-1.98;92.69;100127.28;4924231;29;20682;-68
2023/12/01 11:29:28;;;;;;;11.05;4.72;;;;;;;-1.76;92.05;100119.03;4891062;29;20213;-69
2023/12/01 11:32:08;;;;;;;3.28;2.13;;;;;;;-1.71;91.61;100122.09;4916994;29;20190;-69
2023/12/01 11:35:09;;;;;;;5.95;4.25;;;;;;;-1.79;91.81;100119.28;4904224;29;20221;-68
2023/12/01 11:38:05;;;;;;;9.38;4.18;;;;;;;-1.83;92.02;100117.91;4904927;29;20565;-69
2023/12/01 11:40:42;;;;;;;4.60;3.50;;;;;;;-1.90;92.43;100116.81;4918138;29;20643;-67
2023/12/01 11:43:16;;;;;;;3.60;1.30;;;;;;;-1.87;93.42;100108.56;4894365;29;20567;-68
2023/12/01 11:46:14;;;;;;;4.60;1.70;;;;;;;-1.82;93.46;100116.94;4911961;29;20198;-69
2023/12/01 11:48:53;;;;;;;7.72;3.00;;;;;;;-1.72;91.95;100115.09;4897952;29;20359;-68
2023/12/01 11:51:26;;;;;;;4.93;3.30;;;;;;;-1.73;91.95;100118.72;4889665;29;20593;-69
2023/12/01 11:54:07;;;;;;;3.10;1.33;;;;;;;-1.99;92.44;100117.66;4898564;29;20730;-68
2023/12/01 11:56:48;;;;;;;6.45;2.70;;;;;;;-2.12;93.18;100117.94;4906460;29;20202;-69
2023/12/01 11:59:24;;;;;;;10.75;2.88;;;;;;;-2.16;93.68;100126.31;4915868;29;20647;-68
2023/12/01 12:02:05;;;;;;;18.40;4.50;;;;;;;-2.19;93.55;100122.13;4898984;29;20569;-69
2023/12/01 12:04:42;;;;;;;12.80;5.03;;;;;;;-1.86;93.58;100112.91;4908531;29;20657;-69
2023/12/01 12:07:24;;;;;;;1.35;1.25;;;;;;;-1.85;93.05;100119.88;4922333;29;20189;-67
2023/12/01 12:10:03;;;;;;;5.10;3.50;;;;;;;-1.74;92.59;100122.34;4906922;29;20654;-69
2023/12/01 12:12:40;;;;;;;2.35;2.15;;;;;;;-1.53;91.79;100124.84;4909274;29;20201;-68
2023/12/01 12:15:20;;;;;;;7.55;5.78;;;;;;;-1.34;90.67;100122.97;4920620;29;20593;-69
2023/12/01 12:17:57;;;;;;;8.95;3.13;;;;;;;-1.39;89.21;100125.22;4913381;29;20217;-69